sensor_id;sensor_type;location;lat;lon;timestamp;temperature;humidity
45837;DHT22;31548;51.420;-0.040;2022-11-20T00:01:39;6.30;99.90
45837;DHT22;31548;51.420;-0.040;2022-11-20T00:04:10;6.40;99.90
45837;DHT22;31548;51.420;-0.040;2022-11-20T00:06:39;6.40;99.90
45837;DHT22;31548;51.420;-0.040;2022-11-20T00:09:10;6.30;99.90
45837;DHT22;31548;51.420;-0.040;2022-11-20T00:11:38;6.30;99.90
45837;DHT22;31548;51.420;-0.040;2022-11-20T00:14:06;6.40;99.90
45837;DHT22;31548;51.420;-0.040;2022-11-20T00:16:34;6.40;99.90
45837;DHT22;31548;51.420;-0.040;2022-11-20T00:19:02;6.30;99.90
45837;DHT22;31548;51.420;-0.040;2022-11-20T00:21:30;6.40;99.90
45837;DHT22;31548;51.420;-0.040;2022-11-20T00:23:58;6.40;99.90
45837;DHT22;31548;51.420;-0.040;2022-11-20T00:26:27;6.40;99.90
45837;DHT22;31548;51.420;-0.040;2022-11-20T00:28:59;6.40;99.90
45837;DHT22;31548;51.420;-0.040;2022-11-20T00:31:29;6.40;99.90
45837;DHT22;31548;51.420;-0.040;2022-11-20T00:33:56;6.40;99.90
45837;DHT22;31548;51.420;-0.040;2022-11-20T00:36:26;6.40;99.90
45837;DHT22;31548;51.420;-0.040;2022-11-20T00:38:56;6.40;99.90
45837;DHT22;31548;51.420;-0.040;2022-11-20T00:41:26;6.40;99.90
45837;DHT22;31548;51.420;-0.040;2022-11-20T00:43:55;6.50;99.90
45837;DHT22;31548;51.420;-0.040;2022-11-20T00:46:24;6.50;99.90
45837;DHT22;31548;51.420;-0.040;2022-11-20T00:48:53;6.50;99.90
45837;DHT22;31548;51.420;-0.040;2022-11-20T00:51:23;6.50;99.90
45837;DHT22;31548;51.420;-0.040;2022-11-20T00:53:51;6.50;99.90
45837;DHT22;31548;51.420;-0.040;2022-11-20T00:56:19;6.50;99.90
45837;DHT22;31548;51.420;-0.040;2022-11-20T00:58:48;6.50;99.90
45837;DHT22;31548;51.420;-0.040;2022-11-20T01:01:22;6.50;99.90
45837;DHT22;31548;51.420;-0.040;2022-11-20T01:03:56;6.50;99.90
45837;DHT22;31548;51.420;-0.040;2022-11-20T01:06:32;6.50;99.90
45837;DHT22;31548;51.420;-0.040;2022-11-20T01:09:04;6.50;99.90
45837;DHT22;31548;51.420;-0.040;2022-11-20T01:11:35;6.50;99.90
45837;DHT22;31548;51.420;-0.040;2022-11-20T01:14:05;6.50;99.90
45837;DHT22;31548;51.420;-0.040;2022-11-20T01:16:39;6.50;99.90
45837;DHT22;31548;51.420;-0.040;2022-11-20T01:19:10;6.50;99.90
45837;DHT22;31548;51.420;-0.040;2022-11-20T01:21:45;6.50;99.90
45837;DHT22;31548;51.420;-0.040;2022-11-20T01:24:16;6.60;99.90
45837;DHT22;31548;51.420;-0.040;2022-11-20T01:26:45;6.60;99.90
45837;DHT22;31548;51.420;-0.040;2022-11-20T01:29:17;6.60;99.90
45837;DHT22;31548;51.420;-0.040;2022-11-20T01:31:46;6.60;99.90
45837;DHT22;31548;51.420;-0.040;2022-11-20T01:34:23;6.60;99.90
45837;DHT22;31548;51.420;-0.040;2022-11-20T01:36:53;6.60;99.90
45837;DHT22;31548;51.420;-0.040;2022-11-20T01:39:24;6.60;99.90
45837;DHT22;31548;51.420;-0.040;2022-11-20T01:41:54;6.70;99.90
45837;DHT22;31548;51.420;-0.040;2022-11-20T01:44:59;6.70;99.90
45837;DHT22;31548;51.420;-0.040;2022-11-20T01:47:44;6.70;99.90
45837;DHT22;31548;51.420;-0.040;2022-11-20T01:50:23;6.70;99.90
45837;DHT22;31548;51.420;-0.040;2022-11-20T01:53:07;6.70;99.90
45837;DHT22;31548;51.420;-0.040;2022-11-20T01:55:41;6.80;99.90
45837;DHT22;31548;51.420;-0.040;2022-11-20T01:58:10;6.80;99.90
45837;DHT22;31548;51.420;-0.040;2022-11-20T02:00:39;6.80;99.90
45837;DHT22;31548;51.420;-0.040;2022-11-20T02:03:11;6.80;99.90
45837;DHT22;31548;51.420;-0.040;2022-11-20T02:06:07;6.80;99.90
45837;DHT22;31548;51.420;-0.040;2022-11-20T02:08:38;6.80;99.90
45837;DHT22;31548;51.420;-0.040;2022-11-20T02:11:06;6.80;99.90
45837;DHT22;31548;51.420;-0.040;2022-11-20T02:13:34;6.80;99.90
45837;DHT22;31548;51.420;-0.040;2022-11-20T02:18:42;6.80;99.90
45837;DHT22;31548;51.420;-0.040;2022-11-20T02:26:26;6.80;99.90
45837;DHT22;31548;51.420;-0.040;2022-11-20T02:28:55;6.80;99.90
45837;DHT22;31548;51.420;-0.040;2022-11-20T02:31:24;6.80;99.90
45837;DHT22;31548;51.420;-0.040;2022-11-20T02:33:56;6.90;99.90
45837;DHT22;31548;51.420;-0.040;2022-11-20T02:36:26;6.90;99.90
45837;DHT22;31548;51.420;-0.040;2022-11-20T02:38:55;6.90;99.90
45837;DHT22;31548;51.420;-0.040;2022-11-20T02:41:31;6.90;99.90
45837;DHT22;31548;51.420;-0.040;2022-11-20T02:44:00;6.90;99.90
45837;DHT22;31548;51.420;-0.040;2022-11-20T02:46:28;6.90;99.90
45837;DHT22;31548;51.420;-0.040;2022-11-20T02:48:56;7.00;99.90
45837;DHT22;31548;51.420;-0.040;2022-11-20T02:51:24;7.00;99.90
45837;DHT22;31548;51.420;-0.040;2022-11-20T02:53:51;6.90;99.90
45837;DHT22;31548;51.420;-0.040;2022-11-20T02:56:19;7.00;99.90
45837;DHT22;31548;51.420;-0.040;2022-11-20T02:58:47;7.00;99.90
45837;DHT22;31548;51.420;-0.040;2022-11-20T03:01:15;7.00;99.90
45837;DHT22;31548;51.420;-0.040;2022-11-20T03:03:43;7.00;99.90
45837;DHT22;31548;51.420;-0.040;2022-11-20T03:06:11;7.00;99.90
45837;DHT22;31548;51.420;-0.040;2022-11-20T03:08:38;7.10;99.90
45837;DHT22;31548;51.420;-0.040;2022-11-20T03:11:07;7.10;99.90
45837;DHT22;31548;51.420;-0.040;2022-11-20T03:13:35;7.10;99.90
45837;DHT22;31548;51.420;-0.040;2022-11-20T03:16:14;7.10;99.90
45837;DHT22;31548;51.420;-0.040;2022-11-20T03:18:43;7.10;99.90
45837;DHT22;31548;51.420;-0.040;2022-11-20T03:21:11;7.20;99.90
45837;DHT22;31548;51.420;-0.040;2022-11-20T03:23:40;7.20;99.90
45837;DHT22;31548;51.420;-0.040;2022-11-20T03:26:17;7.20;99.90
45837;DHT22;31548;51.420;-0.040;2022-11-20T03:28:51;7.20;99.90
45837;DHT22;31548;51.420;-0.040;2022-11-20T03:31:21;7.20;99.90
45837;DHT22;31548;51.420;-0.040;2022-11-20T03:33:49;7.20;99.90
45837;DHT22;31548;51.420;-0.040;2022-11-20T03:36:19;7.20;99.90
45837;DHT22;31548;51.420;-0.040;2022-11-20T03:38:47;7.20;99.90
45837;DHT22;31548;51.420;-0.040;2022-11-20T03:41:18;7.30;99.90
45837;DHT22;31548;51.420;-0.040;2022-11-20T03:43:50;7.20;99.90
45837;DHT22;31548;51.420;-0.040;2022-11-20T03:46:18;7.30;99.90
45837;DHT22;31548;51.420;-0.040;2022-11-20T03:48:47;7.30;99.90
45837;DHT22;31548;51.420;-0.040;2022-11-20T03:51:25;7.30;99.90
45837;DHT22;31548;51.420;-0.040;2022-11-20T03:53:55;7.30;99.90
45837;DHT22;31548;51.420;-0.040;2022-11-20T03:56:26;7.40;99.90
45837;DHT22;31548;51.420;-0.040;2022-11-20T03:58:54;7.40;99.90
45837;DHT22;31548;51.420;-0.040;2022-11-20T04:01:25;7.50;99.90
45837;DHT22;31548;51.420;-0.040;2022-11-20T04:03:55;7.50;99.90
45837;DHT22;31548;51.420;-0.040;2022-11-20T04:06:29;7.50;99.90
45837;DHT22;31548;51.420;-0.040;2022-11-20T04:08:58;7.50;99.90
45837;DHT22;31548;51.420;-0.040;2022-11-20T04:11:28;7.50;99.90
45837;DHT22;31548;51.420;-0.040;2022-11-20T04:14:02;7.50;99.90
45837;DHT22;31548;51.420;-0.040;2022-11-20T04:16:32;7.60;99.90
45837;DHT22;31548;51.420;-0.040;2022-11-20T04:19:01;7.60;99.90
45837;DHT22;31548;51.420;-0.040;2022-11-20T04:21:29;7.60;99.90
45837;DHT22;31548;51.420;-0.040;2022-11-20T04:23:57;7.60;99.90
45837;DHT22;31548;51.420;-0.040;2022-11-20T04:26:27;7.60;99.90
45837;DHT22;31548;51.420;-0.040;2022-11-20T04:28:56;7.70;99.90
45837;DHT22;31548;51.420;-0.040;2022-11-20T04:31:28;7.60;99.90
45837;DHT22;31548;51.420;-0.040;2022-11-20T04:34:00;7.70;99.90
45837;DHT22;31548;51.420;-0.040;2022-11-20T04:36:30;7.60;99.90
45837;DHT22;31548;51.420;-0.040;2022-11-20T04:39:04;7.60;99.90
45837;DHT22;31548;51.420;-0.040;2022-11-20T04:41:36;7.70;99.90
45837;DHT22;31548;51.420;-0.040;2022-11-20T04:44:05;7.70;99.90
45837;DHT22;31548;51.420;-0.040;2022-11-20T04:46:36;7.70;99.90
45837;DHT22;31548;51.420;-0.040;2022-11-20T04:49:04;7.70;99.90
45837;DHT22;31548;51.420;-0.040;2022-11-20T04:51:33;7.70;99.90
45837;DHT22;31548;51.420;-0.040;2022-11-20T04:54:01;7.70;99.90
45837;DHT22;31548;51.420;-0.040;2022-11-20T04:56:29;7.70;99.90
45837;DHT22;31548;51.420;-0.040;2022-11-20T04:59:00;7.70;99.90
45837;DHT22;31548;51.420;-0.040;2022-11-20T05:01:29;7.70;99.90
45837;DHT22;31548;51.420;-0.040;2022-11-20T05:03:57;7.70;99.90
45837;DHT22;31548;51.420;-0.040;2022-11-20T05:06:25;7.70;99.90
45837;DHT22;31548;51.420;-0.040;2022-11-20T05:08:52;7.80;99.90
45837;DHT22;31548;51.420;-0.040;2022-11-20T05:11:21;7.70;99.90
45837;DHT22;31548;51.420;-0.040;2022-11-20T05:13:50;7.70;99.90
45837;DHT22;31548;51.420;-0.040;2022-11-20T05:16:21;7.70;99.90
45837;DHT22;31548;51.420;-0.040;2022-11-20T05:18:50;7.80;99.90
45837;DHT22;31548;51.420;-0.040;2022-11-20T05:21:19;7.80;99.90
45837;DHT22;31548;51.420;-0.040;2022-11-20T05:23:47;7.80;99.90
45837;DHT22;31548;51.420;-0.040;2022-11-20T05:26:19;7.80;99.90
45837;DHT22;31548;51.420;-0.040;2022-11-20T05:28:47;7.80;99.90
45837;DHT22;31548;51.420;-0.040;2022-11-20T05:31:18;7.80;99.90
45837;DHT22;31548;51.420;-0.040;2022-11-20T05:33:53;7.80;99.90
45837;DHT22;31548;51.420;-0.040;2022-11-20T05:36:21;7.80;99.90
45837;DHT22;31548;51.420;-0.040;2022-11-20T05:38:49;7.80;99.90
45837;DHT22;31548;51.420;-0.040;2022-11-20T05:41:20;7.80;99.90
45837;DHT22;31548;51.420;-0.040;2022-11-20T05:43:49;7.80;99.90
45837;DHT22;31548;51.420;-0.040;2022-11-20T05:46:19;7.80;99.90
45837;DHT22;31548;51.420;-0.040;2022-11-20T05:48:55;7.80;99.90
45837;DHT22;31548;51.420;-0.040;2022-11-20T05:51:23;7.80;99.90
45837;DHT22;31548;51.420;-0.040;2022-11-20T05:53:51;7.80;99.90
45837;DHT22;31548;51.420;-0.040;2022-11-20T05:56:20;7.80;99.90
45837;DHT22;31548;51.420;-0.040;2022-11-20T05:58:49;7.80;99.90
45837;DHT22;31548;51.420;-0.040;2022-11-20T06:03:47;7.80;99.90
45837;DHT22;31548;51.420;-0.040;2022-11-20T06:06:16;7.80;99.90
45837;DHT22;31548;51.420;-0.040;2022-11-20T06:08:44;7.90;99.90
45837;DHT22;31548;51.420;-0.040;2022-11-20T06:11:13;7.90;99.90
45837;DHT22;31548;51.420;-0.040;2022-11-20T06:13:42;7.90;99.90
45837;DHT22;31548;51.420;-0.040;2022-11-20T06:16:11;7.90;99.90
45837;DHT22;31548;51.420;-0.040;2022-11-20T06:18:40;7.90;99.90
45837;DHT22;31548;51.420;-0.040;2022-11-20T06:21:14;7.90;99.90
45837;DHT22;31548;51.420;-0.040;2022-11-20T06:23:43;7.90;99.90
45837;DHT22;31548;51.420;-0.040;2022-11-20T06:26:18;7.90;99.90
45837;DHT22;31548;51.420;-0.040;2022-11-20T06:28:46;8.00;99.90
45837;DHT22;31548;51.420;-0.040;2022-11-20T06:31:17;8.00;99.90
45837;DHT22;31548;51.420;-0.040;2022-11-20T06:33:45;8.00;99.90
45837;DHT22;31548;51.420;-0.040;2022-11-20T06:36:15;8.00;99.90
45837;DHT22;31548;51.420;-0.040;2022-11-20T06:38:43;8.00;99.90
45837;DHT22;31548;51.420;-0.040;2022-11-20T06:41:14;8.00;99.90
45837;DHT22;31548;51.420;-0.040;2022-11-20T06:43:42;8.00;99.90
45837;DHT22;31548;51.420;-0.040;2022-11-20T06:46:11;8.00;99.90
45837;DHT22;31548;51.420;-0.040;2022-11-20T06:48:40;8.10;99.90
45837;DHT22;31548;51.420;-0.040;2022-11-20T06:51:08;8.10;99.90
45837;DHT22;31548;51.420;-0.040;2022-11-20T06:53:36;8.10;99.90
45837;DHT22;31548;51.420;-0.040;2022-11-20T06:56:05;8.10;99.90
45837;DHT22;31548;51.420;-0.040;2022-11-20T06:58:34;8.10;99.90
45837;DHT22;31548;51.420;-0.040;2022-11-20T07:01:10;8.10;99.90
45837;DHT22;31548;51.420;-0.040;2022-11-20T07:03:38;8.20;99.90
45837;DHT22;31548;51.420;-0.040;2022-11-20T07:06:06;8.20;99.90
45837;DHT22;31548;51.420;-0.040;2022-11-20T07:08:34;8.20;99.90
45837;DHT22;31548;51.420;-0.040;2022-11-20T07:11:05;8.30;99.90
45837;DHT22;31548;51.420;-0.040;2022-11-20T07:13:33;8.30;99.90
45837;DHT22;31548;51.420;-0.040;2022-11-20T07:16:07;8.40;99.90
45837;DHT22;31548;51.420;-0.040;2022-11-20T07:18:35;8.40;99.90
45837;DHT22;31548;51.420;-0.040;2022-11-20T07:21:05;8.40;99.90
45837;DHT22;31548;51.420;-0.040;2022-11-20T07:23:33;8.50;99.90
45837;DHT22;31548;51.420;-0.040;2022-11-20T07:26:07;8.50;99.90
45837;DHT22;31548;51.420;-0.040;2022-11-20T07:28:35;8.50;99.90
45837;DHT22;31548;51.420;-0.040;2022-11-20T07:31:04;8.50;99.90
45837;DHT22;31548;51.420;-0.040;2022-11-20T07:33:32;8.60;99.90
45837;DHT22;31548;51.420;-0.040;2022-11-20T07:36:00;8.70;99.90
45837;DHT22;31548;51.420;-0.040;2022-11-20T07:38:27;8.60;99.90
45837;DHT22;31548;51.420;-0.040;2022-11-20T07:40:56;8.60;99.90
45837;DHT22;31548;51.420;-0.040;2022-11-20T07:43:25;8.50;99.90
45837;DHT22;31548;51.420;-0.040;2022-11-20T07:45:55;8.50;99.90
45837;DHT22;31548;51.420;-0.040;2022-11-20T07:48:24;8.60;99.90
45837;DHT22;31548;51.420;-0.040;2022-11-20T07:50:56;8.60;99.90
45837;DHT22;31548;51.420;-0.040;2022-11-20T07:53:24;8.50;99.90
45837;DHT22;31548;51.420;-0.040;2022-11-20T07:55:52;8.60;99.90
45837;DHT22;31548;51.420;-0.040;2022-11-20T07:58:20;8.60;99.90
45837;DHT22;31548;51.420;-0.040;2022-11-20T08:00:48;8.60;99.90
45837;DHT22;31548;51.420;-0.040;2022-11-20T08:03:17;8.60;99.90
45837;DHT22;31548;51.420;-0.040;2022-11-20T08:05:51;8.60;99.90
45837;DHT22;31548;51.420;-0.040;2022-11-20T08:08:19;8.70;99.90
45837;DHT22;31548;51.420;-0.040;2022-11-20T08:10:48;8.60;99.90
45837;DHT22;31548;51.420;-0.040;2022-11-20T08:13:16;8.60;99.90
45837;DHT22;31548;51.420;-0.040;2022-11-20T08:16:02;8.60;99.90
45837;DHT22;31548;51.420;-0.040;2022-11-20T08:18:30;8.70;99.90
45837;DHT22;31548;51.420;-0.040;2022-11-20T08:21:05;8.70;99.90
45837;DHT22;31548;51.420;-0.040;2022-11-20T08:23:33;8.70;99.90
45837;DHT22;31548;51.420;-0.040;2022-11-20T08:26:01;8.70;99.90
45837;DHT22;31548;51.420;-0.040;2022-11-20T08:28:29;8.70;99.90
45837;DHT22;31548;51.420;-0.040;2022-11-20T08:31:00;8.70;99.90
45837;DHT22;31548;51.420;-0.040;2022-11-20T08:33:28;8.70;99.90
45837;DHT22;31548;51.420;-0.040;2022-11-20T08:36:03;8.80;99.90
45837;DHT22;31548;51.420;-0.040;2022-11-20T08:38:31;8.70;99.90
45837;DHT22;31548;51.420;-0.040;2022-11-20T08:40:59;8.70;99.90
45837;DHT22;31548;51.420;-0.040;2022-11-20T08:43:46;8.80;99.90
45837;DHT22;31548;51.420;-0.040;2022-11-20T08:46:14;8.80;99.90
45837;DHT22;31548;51.420;-0.040;2022-11-20T08:48:42;8.70;99.90
45837;DHT22;31548;51.420;-0.040;2022-11-20T08:51:11;8.80;99.90
45837;DHT22;31548;51.420;-0.040;2022-11-20T08:53:39;8.80;99.90
45837;DHT22;31548;51.420;-0.040;2022-11-20T08:56:07;8.80;99.90
45837;DHT22;31548;51.420;-0.040;2022-11-20T08:58:37;8.70;99.90
45837;DHT22;31548;51.420;-0.040;2022-11-20T09:01:25;8.70;99.90
45837;DHT22;31548;51.420;-0.040;2022-11-20T09:03:57;8.70;99.90
45837;DHT22;31548;51.420;-0.040;2022-11-20T09:06:25;8.70;99.90
45837;DHT22;31548;51.420;-0.040;2022-11-20T09:08:53;8.80;99.90
45837;DHT22;31548;51.420;-0.040;2022-11-20T09:11:22;8.80;99.90
45837;DHT22;31548;51.420;-0.040;2022-11-20T09:13:50;8.70;99.90
45837;DHT22;31548;51.420;-0.040;2022-11-20T09:16:17;8.70;99.90
45837;DHT22;31548;51.420;-0.040;2022-11-20T09:18:45;8.70;99.90
45837;DHT22;31548;51.420;-0.040;2022-11-20T09:21:23;8.70;99.90
45837;DHT22;31548;51.420;-0.040;2022-11-20T09:23:52;8.70;99.90
45837;DHT22;31548;51.420;-0.040;2022-11-20T09:26:22;8.70;99.90
45837;DHT22;31548;51.420;-0.040;2022-11-20T09:28:50;8.80;99.90
45837;DHT22;31548;51.420;-0.040;2022-11-20T09:31:25;8.70;99.90
45837;DHT22;31548;51.420;-0.040;2022-11-20T09:33:53;8.80;99.90
45837;DHT22;31548;51.420;-0.040;2022-11-20T09:36:21;8.70;99.90
45837;DHT22;31548;51.420;-0.040;2022-11-20T09:38:49;8.70;99.90
45837;DHT22;31548;51.420;-0.040;2022-11-20T09:42:12;8.70;99.90
45837;DHT22;31548;51.420;-0.040;2022-11-20T09:55:54;8.60;99.90
45837;DHT22;31548;51.420;-0.040;2022-11-20T09:58:35;8.60;99.90
45837;DHT22;31548;51.420;-0.040;2022-11-20T10:01:18;8.60;99.90
45837;DHT22;31548;51.420;-0.040;2022-11-20T10:06:39;8.60;99.90
45837;DHT22;31548;51.420;-0.040;2022-11-20T10:12:17;8.60;99.90
45837;DHT22;31548;51.420;-0.040;2022-11-20T10:15:09;8.60;99.90
45837;DHT22;31548;51.420;-0.040;2022-11-20T10:20:58;8.60;99.90
45837;DHT22;31548;51.420;-0.040;2022-11-20T10:26:42;8.70;99.90
45837;DHT22;31548;51.420;-0.040;2022-11-20T10:29:18;8.70;99.90
45837;DHT22;31548;51.420;-0.040;2022-11-20T10:32:00;8.70;99.90
45837;DHT22;31548;51.420;-0.040;2022-11-20T10:34:34;8.70;99.90
45837;DHT22;31548;51.420;-0.040;2022-11-20T10:37:15;8.80;99.90
45837;DHT22;31548;51.420;-0.040;2022-11-20T10:45:19;8.90;99.90
45837;DHT22;31548;51.420;-0.040;2022-11-20T10:47:49;8.90;99.90
45837;DHT22;31548;51.420;-0.040;2022-11-20T10:50:21;8.90;99.90
45837;DHT22;31548;51.420;-0.040;2022-11-20T10:53:00;9.00;99.90
45837;DHT22;31548;51.420;-0.040;2022-11-20T10:55:42;9.00;99.90
45837;DHT22;31548;51.420;-0.040;2022-11-20T10:58:26;9.10;99.90
45837;DHT22;31548;51.420;-0.040;2022-11-20T11:01:15;9.10;99.90
45837;DHT22;31548;51.420;-0.040;2022-11-20T11:03:43;9.10;99.90
45837;DHT22;31548;51.420;-0.040;2022-11-20T11:08:53;9.20;99.90
45837;DHT22;31548;51.420;-0.040;2022-11-20T11:11:29;9.20;99.90
45837;DHT22;31548;51.420;-0.040;2022-11-20T11:14:14;9.30;99.90
45837;DHT22;31548;51.420;-0.040;2022-11-20T11:16:52;9.40;99.90
45837;DHT22;31548;51.420;-0.040;2022-11-20T11:19:20;9.40;99.90
45837;DHT22;31548;51.420;-0.040;2022-11-20T11:21:57;9.40;99.90
45837;DHT22;31548;51.420;-0.040;2022-11-20T11:24:29;9.40;99.90
45837;DHT22;31548;51.420;-0.040;2022-11-20T11:27:14;9.50;99.90
45837;DHT22;31548;51.420;-0.040;2022-11-20T11:29:46;9.50;99.90
45837;DHT22;31548;51.420;-0.040;2022-11-20T11:32:21;9.50;99.90
45837;DHT22;31548;51.420;-0.040;2022-11-20T11:35:00;9.50;99.90
45837;DHT22;31548;51.420;-0.040;2022-11-20T11:37:35;9.60;99.90
45837;DHT22;31548;51.420;-0.040;2022-11-20T11:40:05;9.60;99.90
45837;DHT22;31548;51.420;-0.040;2022-11-20T11:42:59;9.70;99.90
45837;DHT22;31548;51.420;-0.040;2022-11-20T11:45:28;9.80;99.90
45837;DHT22;31548;51.420;-0.040;2022-11-20T11:47:58;9.80;99.90
45837;DHT22;31548;51.420;-0.040;2022-11-20T11:50:28;9.90;99.90
45837;DHT22;31548;51.420;-0.040;2022-11-20T11:53:12;9.90;99.90
45837;DHT22;31548;51.420;-0.040;2022-11-20T11:55:48;9.90;99.90
45837;DHT22;31548;51.420;-0.040;2022-11-20T11:58:41;9.90;99.90
45837;DHT22;31548;51.420;-0.040;2022-11-20T12:01:28;10.00;99.90
45837;DHT22;31548;51.420;-0.040;2022-11-20T12:04:25;10.00;99.90
45837;DHT22;31548;51.420;-0.040;2022-11-20T12:07:02;10.10;99.90
45837;DHT22;31548;51.420;-0.040;2022-11-20T12:09:54;10.20;99.90
45837;DHT22;31548;51.420;-0.040;2022-11-20T12:12:29;10.20;99.90
45837;DHT22;31548;51.420;-0.040;2022-11-20T12:14:57;10.30;99.90
45837;DHT22;31548;51.420;-0.040;2022-11-20T12:17:25;10.30;99.90
45837;DHT22;31548;51.420;-0.040;2022-11-20T12:19:53;10.30;99.90
45837;DHT22;31548;51.420;-0.040;2022-11-20T12:25:36;10.40;99.90
45837;DHT22;31548;51.420;-0.040;2022-11-20T12:28:53;10.50;99.90
45837;DHT22;31548;51.420;-0.040;2022-11-20T12:34:32;10.50;99.90
45837;DHT22;31548;51.420;-0.040;2022-11-20T12:39:58;10.50;99.90
45837;DHT22;31548;51.420;-0.040;2022-11-20T12:42:46;10.60;99.90
45837;DHT22;31548;51.420;-0.040;2022-11-20T12:48:46;10.60;99.90
45837;DHT22;31548;51.420;-0.040;2022-11-20T12:51:45;10.70;99.90
45837;DHT22;31548;51.420;-0.040;2022-11-20T13:00:14;10.70;99.90
45837;DHT22;31548;51.420;-0.040;2022-11-20T13:08:16;10.70;99.90
45837;DHT22;31548;51.420;-0.040;2022-11-20T13:11:12;10.70;99.90
45837;DHT22;31548;51.420;-0.040;2022-11-20T13:14:01;10.70;99.90
45837;DHT22;31548;51.420;-0.040;2022-11-20T13:16:52;10.80;99.90
45837;DHT22;31548;51.420;-0.040;2022-11-20T13:19:21;10.80;99.90
45837;DHT22;31548;51.420;-0.040;2022-11-20T13:21:50;10.80;99.90
45837;DHT22;31548;51.420;-0.040;2022-11-20T13:27:22;10.90;99.90
45837;DHT22;31548;51.420;-0.040;2022-11-20T13:30:14;10.90;99.90
45837;DHT22;31548;51.420;-0.040;2022-11-20T13:33:09;11.00;99.90
45837;DHT22;31548;51.420;-0.040;2022-11-20T13:36:23;10.90;99.90
45837;DHT22;31548;51.420;-0.040;2022-11-20T13:38:54;10.90;99.90
45837;DHT22;31548;51.420;-0.040;2022-11-20T13:41:29;10.90;99.90
45837;DHT22;31548;51.420;-0.040;2022-11-20T13:44:05;10.90;99.90
45837;DHT22;31548;51.420;-0.040;2022-11-20T13:46:46;10.90;99.90
45837;DHT22;31548;51.420;-0.040;2022-11-20T13:51:47;11.00;99.90
45837;DHT22;31548;51.420;-0.040;2022-11-20T13:57:27;11.00;99.90
45837;DHT22;31548;51.420;-0.040;2022-11-20T14:02:36;10.90;99.90
45837;DHT22;31548;51.420;-0.040;2022-11-20T14:05:04;10.80;99.90
45837;DHT22;31548;51.420;-0.040;2022-11-20T14:07:38;10.70;99.90
45837;DHT22;31548;51.420;-0.040;2022-11-20T14:10:28;10.70;99.90
45837;DHT22;31548;51.420;-0.040;2022-11-20T14:13:09;10.60;99.90
45837;DHT22;31548;51.420;-0.040;2022-11-20T14:15:36;10.60;99.90
45837;DHT22;31548;51.420;-0.040;2022-11-20T14:18:18;10.60;99.90
45837;DHT22;31548;51.420;-0.040;2022-11-20T14:20:46;10.60;99.90
45837;DHT22;31548;51.420;-0.040;2022-11-20T14:23:26;10.60;99.90
45837;DHT22;31548;51.420;-0.040;2022-11-20T14:25:56;10.60;99.90
45837;DHT22;31548;51.420;-0.040;2022-11-20T14:28:30;10.60;99.90
45837;DHT22;31548;51.420;-0.040;2022-11-20T14:30:57;10.60;99.90
45837;DHT22;31548;51.420;-0.040;2022-11-20T14:33:26;10.60;99.90
45837;DHT22;31548;51.420;-0.040;2022-11-20T14:35:55;10.60;99.90
45837;DHT22;31548;51.420;-0.040;2022-11-20T14:38:27;10.60;99.90
45837;DHT22;31548;51.420;-0.040;2022-11-20T14:41:06;10.60;99.90
45837;DHT22;31548;51.420;-0.040;2022-11-20T14:43:33;10.60;99.90
45837;DHT22;31548;51.420;-0.040;2022-11-20T14:46:07;10.70;99.90
45837;DHT22;31548;51.420;-0.040;2022-11-20T14:54:17;10.60;99.90
45837;DHT22;31548;51.420;-0.040;2022-11-20T14:56:59;10.60;99.90
45837;DHT22;31548;51.420;-0.040;2022-11-20T14:59:31;10.60;99.90
45837;DHT22;31548;51.420;-0.040;2022-11-20T15:02:03;10.60;99.90
45837;DHT22;31548;51.420;-0.040;2022-11-20T15:04:30;10.60;99.90
45837;DHT22;31548;51.420;-0.040;2022-11-20T15:06:59;10.50;99.90
45837;DHT22;31548;51.420;-0.040;2022-11-20T15:09:26;10.50;99.90
45837;DHT22;31548;51.420;-0.040;2022-11-20T15:11:58;10.50;99.90
45837;DHT22;31548;51.420;-0.040;2022-11-20T15:14:27;10.50;99.90
45837;DHT22;31548;51.420;-0.040;2022-11-20T15:16:55;10.50;99.90
45837;DHT22;31548;51.420;-0.040;2022-11-20T15:19:24;10.40;99.90
45837;DHT22;31548;51.420;-0.040;2022-11-20T15:21:52;10.50;99.90
45837;DHT22;31548;51.420;-0.040;2022-11-20T15:24:20;10.40;99.90
45837;DHT22;31548;51.420;-0.040;2022-11-20T15:26:48;10.40;99.90
45837;DHT22;31548;51.420;-0.040;2022-11-20T15:29:16;10.40;99.90
45837;DHT22;31548;51.420;-0.040;2022-11-20T15:31:47;10.30;99.90
45837;DHT22;31548;51.420;-0.040;2022-11-20T15:34:15;10.30;99.90
45837;DHT22;31548;51.420;-0.040;2022-11-20T15:36:43;10.30;99.90
45837;DHT22;31548;51.420;-0.040;2022-11-20T15:39:10;10.30;99.90
45837;DHT22;31548;51.420;-0.040;2022-11-20T15:41:38;10.20;99.90
45837;DHT22;31548;51.420;-0.040;2022-11-20T15:44:06;10.20;99.90
45837;DHT22;31548;51.420;-0.040;2022-11-20T15:46:38;10.20;99.90
45837;DHT22;31548;51.420;-0.040;2022-11-20T15:49:12;10.20;99.90
45837;DHT22;31548;51.420;-0.040;2022-11-20T15:51:43;10.10;99.90
45837;DHT22;31548;51.420;-0.040;2022-11-20T15:54:16;10.10;99.90
45837;DHT22;31548;51.420;-0.040;2022-11-20T15:56:45;10.10;99.90
45837;DHT22;31548;51.420;-0.040;2022-11-20T15:59:13;10.10;99.90
45837;DHT22;31548;51.420;-0.040;2022-11-20T16:01:42;10.10;99.90
45837;DHT22;31548;51.420;-0.040;2022-11-20T16:04:14;10.10;99.90
45837;DHT22;31548;51.420;-0.040;2022-11-20T16:06:42;10.10;99.90
45837;DHT22;31548;51.420;-0.040;2022-11-20T16:09:09;10.00;99.90
45837;DHT22;31548;51.420;-0.040;2022-11-20T16:11:37;10.00;99.90
45837;DHT22;31548;51.420;-0.040;2022-11-20T16:14:05;9.90;99.90
45837;DHT22;31548;51.420;-0.040;2022-11-20T16:16:51;9.90;99.90
45837;DHT22;31548;51.420;-0.040;2022-11-20T16:19:18;9.90;99.90
45837;DHT22;31548;51.420;-0.040;2022-11-20T16:21:46;9.90;99.90
45837;DHT22;31548;51.420;-0.040;2022-11-20T16:24:14;9.90;99.90
45837;DHT22;31548;51.420;-0.040;2022-11-20T16:26:42;9.90;99.90
45837;DHT22;31548;51.420;-0.040;2022-11-20T16:29:10;9.90;99.90
45837;DHT22;31548;51.420;-0.040;2022-11-20T16:31:37;9.90;99.90
45837;DHT22;31548;51.420;-0.040;2022-11-20T16:34:06;9.90;99.90
45837;DHT22;31548;51.420;-0.040;2022-11-20T16:36:42;9.90;99.90
45837;DHT22;31548;51.420;-0.040;2022-11-20T16:39:12;9.90;99.90
45837;DHT22;31548;51.420;-0.040;2022-11-20T16:41:39;9.90;99.90
45837;DHT22;31548;51.420;-0.040;2022-11-20T16:44:08;9.90;99.90
45837;DHT22;31548;51.420;-0.040;2022-11-20T16:46:36;9.80;99.90
45837;DHT22;31548;51.420;-0.040;2022-11-20T16:49:05;9.90;99.90
45837;DHT22;31548;51.420;-0.040;2022-11-20T16:51:36;9.80;99.90
45837;DHT22;31548;51.420;-0.040;2022-11-20T16:54:08;9.80;99.90
45837;DHT22;31548;51.420;-0.040;2022-11-20T16:56:36;9.80;99.90
45837;DHT22;31548;51.420;-0.040;2022-11-20T16:59:04;9.80;99.90
45837;DHT22;31548;51.420;-0.040;2022-11-20T17:01:31;9.70;99.90
45837;DHT22;31548;51.420;-0.040;2022-11-20T17:04:02;9.70;99.90
45837;DHT22;31548;51.420;-0.040;2022-11-20T17:06:32;9.70;99.90
45837;DHT22;31548;51.420;-0.040;2022-11-20T17:09:00;9.60;99.90
45837;DHT22;31548;51.420;-0.040;2022-11-20T17:11:27;9.60;99.90
45837;DHT22;31548;51.420;-0.040;2022-11-20T17:13:56;9.60;99.90
45837;DHT22;31548;51.420;-0.040;2022-11-20T17:16:26;9.60;99.90
45837;DHT22;31548;51.420;-0.040;2022-11-20T17:18:55;9.60;99.90
45837;DHT22;31548;51.420;-0.040;2022-11-20T17:21:28;9.60;99.90